Time;durP1;ratioP1;P1;durP2;ratioP2;P2;SDS_P1;SDS_P2;PMS_P1;PMS_P2;Temp;Humidity;BMP_temperature;BMP_pressure;BME280_temperature;BME280_humidity;BME280_pressure;Samples;Min_cycle;Max_cycle;Signal;HPM_P1;HPM_P2
2023/03/28 00:01:00;;;;;;;14.70;5.73;;;;;;;-147.16;64.18;77837.69;5045766;23;25606;-66
2023/03/28 00:03:28;;;;;;;14.33;5.57;;;;;;;-147.16;64.94;77835.66;5045731;23;20248;-63
2023/03/28 00:05:59;;;;;;;16.27;5.00;;;;;;;-147.16;65.13;77837.69;5064823;23;21252;-65
2023/03/28 00:08:30;;;;;;;15.57;5.73;;;;;;;-147.16;65.26;77831.63;5049627;23;20717;-65
2023/03/28 00:11:09;;;;;;;13.97;5.30;;;;;;;-147.16;65.67;77837.69;5048632;23;20283;-65
2023/03/28 00:13:36;;;;;;;11.83;4.90;;;;;;;-147.16;66.49;77849.84;5061614;23;20268;-64
2023/03/28 00:16:08;;;;;;;13.57;5.30;;;;;;;-147.16;67.48;77866.03;5043169;23;20209;-64
2023/03/28 00:18:37;;;;;;;12.87;4.97;;;;;;;-147.16;67.66;77862.00;5039881;23;20224;-65
2023/03/28 00:21:24;;;;;;;14.40;4.40;;;;;;;-147.16;68.09;77870.09;5050762;23;20209;-65
2023/03/28 00:23:53;;;;;;;14.87;4.90;;;;;;;-147.16;68.17;77868.06;5045277;23;20204;-67
2023/03/28 00:26:23;;;;;;;16.67;5.27;;;;;;;-147.16;68.62;77866.03;5056606;23;21629;-66
2023/03/28 00:28:52;;;;;;;11.93;4.63;;;;;;;-147.16;68.53;77862.00;5049478;23;21695;-65
2023/03/28 00:31:19;;;;;;;11.63;4.77;;;;;;;-147.16;69.02;77857.94;5027478;23;20199;-66
2023/03/28 00:33:46;;;;;;;16.30;5.70;;;;;;;-147.16;69.17;77851.88;5047714;23;20712;-64
2023/03/28 00:36:17;;;;;;;14.33;5.17;;;;;;;-147.16;69.20;77855.91;5043859;23;20295;-66
2023/03/28 00:38:44;;;;;;;13.77;5.40;;;;;;;-147.16;69.95;77866.03;5026905;23;20213;-65
2023/03/28 00:41:14;;;;;;;15.07;6.10;;;;;;;-147.16;70.45;77870.09;5048283;23;20215;-66
2023/03/28 00:43:43;;;;;;;14.90;5.67;;;;;;;-147.16;71.33;77886.28;5048805;23;20205;-65
2023/03/28 00:46:21;;;;;;;19.33;6.00;;;;;;;-147.16;71.44;77892.38;5041365;23;21276;-65
2023/03/28 00:48:50;;;;;;;17.23;6.10;;;;;;;-147.16;71.80;77890.34;5043686;23;20236;-62
2023/03/28 00:51:20;;;;;;;19.87;6.20;;;;;;;-147.16;72.16;77884.25;5040250;23;20205;-64
2023/03/28 00:53:48;;;;;;;16.83;5.83;;;;;;;-147.16;72.60;77902.50;5104774;23;20205;-64
2023/03/28 00:56:17;;;;;;;18.60;6.70;;;;;;;-147.16;73.00;77886.28;5170987;23;20386;-66
2023/03/28 00:58:46;;;;;;;13.53;5.83;;;;;;;-147.16;72.81;77892.38;5059518;23;20211;-63
2023/03/28 01:01:14;;;;;;;14.50;6.13;;;;;;;-147.16;73.25;77890.34;5054857;23;20210;-65
2023/03/28 01:03:45;;;;;;;14.60;6.77;;;;;;;-147.16;73.57;77904.50;5045480;23;20339;-64
2023/03/28 01:06:13;;;;;;;17.27;6.50;;;;;;;-147.16;73.84;77910.59;5025671;23;20320;-65
2023/03/28 01:08:42;;;;;;;14.60;6.37;;;;;;;-147.16;73.71;77884.25;5035403;23;22995;-65
2023/03/28 01:11:11;;;;;;;15.47;6.70;;;;;;;-147.16;73.90;77884.25;5061600;23;20200;-64
2023/03/28 01:13:40;;;;;;;15.83;6.80;;;;;;;-147.16;73.54;77878.19;5057957;23;20812;-65
2023/03/28 01:16:07;;;;;;;19.47;6.80;;;;;;;-147.16;73.46;77857.94;5046232;23;21055;-65
2023/03/28 01:18:36;;;;;;;16.83;6.67;;;;;;;-147.16;72.98;77843.75;5052336;23;21536;-65
2023/03/28 01:21:37;;;;;;;22.60;7.00;;;;;;;-147.16;73.16;77833.63;5044405;23;20276;-64
2023/03/28 01:24:19;;;;;;;26.97;7.70;;;;;;;-147.16;72.90;77813.38;5062351;23;20212;-64
2023/03/28 01:26:57;;;;;;;21.70;7.47;;;;;;;-147.16;72.88;77829.59;5047190;23;20201;-66
2023/03/28 01:30:01;;;;;;;23.30;7.57;;;;;;;-147.16;72.89;77815.41;5067908;23;20289;-64
2023/03/28 01:33:00;;;;;;;24.00;7.83;;;;;;;-147.16;72.86;77821.47;5052778;23;20204;-63
2023/03/28 01:36:04;;;;;;;16.53;6.67;;;;;;;-147.16;72.58;77801.22;5040891;23;25483;-65
2023/03/28 01:38:43;;;;;;;17.80;6.77;;;;;;;-147.16;72.32;77785.03;5066845;23;20206;-65
2023/03/28 01:41:22;;;;;;;23.97;8.00;;;;;;;-147.16;72.10;77795.16;5051440;23;21448;-63
2023/03/28 01:43:57;;;;;;;28.90;8.70;;;;;;;-147.16;72.28;77821.47;5034250;23;20543;-64
2023/03/28 01:46:29;;;;;;;21.00;8.73;;;;;;;-147.16;72.54;77835.66;5071486;23;20203;-65
2023/03/28 01:49:06;;;;;;;21.33;8.80;;;;;;;-147.16;72.61;77843.75;5060745;23;20283;-65
2023/03/28 01:51:38;;;;;;;23.50;9.47;;;;;;;-147.16;73.19;77866.03;5027990;23;20371;-63
2023/03/28 01:54:22;;;;;;;22.93;9.10;;;;;;;-147.16;73.48;77866.03;5051426;23;26294;-65
2023/03/28 01:57:00;;;;;;;22.87;9.30;;;;;;;-147.16;74.11;77862.00;5051179;23;20216;-64
2023/03/28 01:59:33;;;;;;;23.70;9.20;;;;;;;-147.16;73.99;77862.00;5043582;23;21303;-63
2023/03/28 02:02:08;;;;;;;29.83;9.93;;;;;;;-147.16;73.96;77866.03;5025669;23;21817;-66
2023/03/28 02:04:35;;;;;;;25.70;9.10;;;;;;;-147.16;74.52;77862.00;5056392;23;20287;-63
2023/03/28 02:07:02;;;;;;;28.80;9.43;;;;;;;-147.16;74.08;77853.88;5024947;23;20219;-65
2023/03/28 02:09:31;;;;;;;31.17;10.57;;;;;;;-147.16;74.36;77845.78;5065080;23;20220;-62
2023/03/28 02:12:03;;;;;;;34.40;11.50;;;;;;;-147.16;74.51;77855.91;5053259;23;20222;-64
2023/03/28 02:14:35;;;;;;;25.13;10.37;;;;;;;-147.16;74.81;77857.94;5032503;23;21285;-66
2023/03/28 02:17:05;;;;;;;32.43;10.83;;;;;;;-147.16;74.87;77855.91;5040960;23;21215;-64
2023/03/28 02:19:36;;;;;;;30.77;11.33;;;;;;;-147.16;74.73;77839.72;5074545;23;20208;-63
2023/03/28 02:22:14;;;;;;;29.33;11.90;;;;;;;-147.16;74.91;77847.81;5048705;23;20207;-64
2023/03/28 02:24:40;;;;;;;31.70;11.37;;;;;;;-147.16;75.49;77862.00;5043489;23;20210;-65
2023/03/28 02:27:07;;;;;;;29.43;11.10;;;;;;;-147.16;75.88;77866.03;5050947;23;20207;-63
2023/03/28 02:29:36;;;;;;;31.37;11.33;;;;;;;-147.16;75.97;77855.91;5058565;23;20240;-66
2023/03/28 02:32:03;;;;;;;25.53;11.07;;;;;;;-147.16;76.13;77857.94;5041824;23;21712;-64
2023/03/28 02:34:30;;;;;;;28.80;10.73;;;;;;;-147.16;76.22;77857.94;5053093;23;22506;-65
2023/03/28 02:37:37;;;;;;;36.33;11.87;;;;;;;-147.16;76.37;77851.88;5039256;23;22394;-66
2023/03/28 02:40:12;;;;;;;30.30;11.10;;;;;;;-147.16;76.52;77837.69;5069728;23;20225;-64
2023/03/28 02:42:47;;;;;;;33.80;11.80;;;;;;;-147.16;76.50;77845.78;5047769;23;20591;-64
2023/03/28 02:45:30;;;;;;;27.20;11.20;;;;;;;-147.16;76.73;77831.63;5048445;23;23653;-64
2023/03/28 02:48:36;;;;;;;32.10;11.50;;;;;;;-147.16;76.49;77833.63;5040157;23;20209;-67
2023/03/28 02:51:15;;;;;;;28.17;10.70;;;;;;;-147.16;76.93;77841.75;5023308;23;21747;-65
2023/03/28 02:54:26;;;;;;;32.37;11.03;;;;;;;-147.16;76.70;77855.91;5067575;23;20275;-66
2023/03/28 02:57:15;;;;;;;25.20;10.03;;;;;;;-147.16;76.95;77857.94;5030951;23;20209;-64
2023/03/28 02:59:45;;;;;;;25.07;9.93;;;;;;;-147.16;77.42;77866.03;5051916;23;20662;-64
2023/03/28 03:02:16;;;;;;;29.43;10.17;;;;;;;-147.16;77.60;77857.94;5045547;23;20204;-67
2023/03/28 03:04:43;;;;;;;25.53;9.33;;;;;;;-147.16;77.62;77843.75;5045398;23;22677;-64
2023/03/28 03:07:10;;;;;;;26.43;10.10;;;;;;;-147.16;77.50;77825.53;5075582;23;20206;-66
2023/03/28 03:09:36;;;;;;;23.63;10.00;;;;;;;-147.16;77.30;77801.22;5044604;23;21299;-67
2023/03/28 03:12:03;;;;;;;28.70;10.20;;;;;;;-147.16;77.02;77795.16;5041255;23;20274;-64
2023/03/28 03:14:29;;;;;;;27.10;10.67;;;;;;;-147.16;76.87;77776.94;5042379;23;20210;-63
2023/03/28 03:16:56;;;;;;;34.90;11.37;;;;;;;-147.16;76.03;77760.72;5061067;23;20269;-64
2023/03/28 03:19:22;;;;;;;30.30;10.80;;;;;;;-147.16;75.45;77758.72;5005616;23;21407;-66
2023/03/28 03:21:49;;;;;;;26.30;9.57;;;;;;;-147.16;75.37;77750.59;5021888;23;20209;-62
2023/03/28 03:24:15;;;;;;;23.33;9.53;;;;;;;-147.16;74.79;77740.47;5030975;23;20205;-64
2023/03/28 03:26:42;;;;;;;21.90;9.30;;;;;;;-147.16;74.18;77722.25;5026419;23;21136;-64
2023/03/28 03:29:08;;;;;;;26.00;10.27;;;;;;;-147.16;73.77;77724.28;5018395;23;22067;-61
2023/03/28 03:31:35;;;;;;;25.03;9.80;;;;;;;-147.16;73.00;77740.47;5025720;23;21467;-65
2023/03/28 03:34:03;;;;;;;29.40;9.10;;;;;;;-147.16;72.80;77754.66;5015880;23;20257;-66
2023/03/28 03:36:30;;;;;;;22.57;9.67;;;;;;;-147.16;72.90;77732.38;5015789;23;20213;-65
2023/03/28 03:38:57;;;;;;;24.37;8.77;;;;;;;-147.16;71.89;77726.31;4992217;23;21130;-63
2023/03/28 03:41:23;;;;;;;23.80;8.97;;;;;;;-147.16;71.53;77699.97;5023464;23;21904;-65
2023/03/28 03:43:50;;;;;;;22.93;9.00;;;;;;;-147.16;70.78;77687.84;5026244;23;20205;-64
2023/03/28 03:46:17;;;;;;;21.90;8.73;;;;;;;-147.16;71.06;77683.78;5023626;23;20703;-62
2023/03/28 03:48:43;;;;;;;27.23;9.47;;;;;;;-147.16;70.76;77687.84;5024302;23;20260;-65
2023/03/28 03:51:16;;;;;;;22.90;9.63;;;;;;;-147.16;70.34;77689.84;5027203;23;20718;-65
2023/03/28 03:53:43;;;;;;;26.77;9.27;;;;;;;-147.16;70.30;77689.84;5011613;23;20238;-63
2023/03/28 03:56:10;;;;;;;23.40;9.00;;;;;;;-147.16;70.39;77693.91;5013188;23;20683;-64
2023/03/28 03:58:36;;;;;;;20.17;8.17;;;;;;;-147.16;70.08;77687.84;4989854;23;20206;-65
2023/03/28 04:01:03;;;;;;;22.13;8.07;;;;;;;-147.16;69.64;77691.88;5029071;23;20201;-63
2023/03/28 04:03:29;;;;;;;26.27;9.07;;;;;;;-147.16;69.86;77716.19;5011551;23;20250;-63
2023/03/28 04:05:56;;;;;;;26.20;8.87;;;;;;;-147.16;69.88;77706.06;5025305;23;20202;-66
2023/03/28 04:08:24;;;;;;;21.60;8.37;;;;;;;-147.16;69.39;77695.94;5021855;23;20220;-62
2023/03/28 04:10:51;;;;;;;23.80;8.43;;;;;;;-147.16;69.04;77695.94;5017684;23;20284;-64
2023/03/28 04:13:17;;;;;;;20.27;8.20;;;;;;;-147.16;68.53;77689.84;5029912;23;20197;-69
2023/03/28 04:15:47;;;;;;;27.90;7.90;;;;;;;-147.16;68.43;77695.94;5032611;23;22813;-64
2023/03/28 04:18:19;;;;;;;24.20;8.53;;;;;;;-147.16;68.14;77687.84;5037554;23;20612;-63
2023/03/28 04:20:52;;;;;;;23.53;8.63;;;;;;;-147.16;68.26;77689.84;5046956;23;20222;-63
2023/03/28 04:23:19;;;;;;;26.07;8.50;;;;;;;-147.16;68.01;77679.72;5050619;23;20619;-67
2023/03/28 04:25:48;;;;;;;25.00;7.73;;;;;;;-147.16;67.58;77675.69;5052505;23;20293;-65
2023/03/28 04:28:15;;;;;;;19.87;8.10;;;;;;;-147.16;67.98;77671.63;5027487;23;25431;-65
2023/03/28 04:30:42;;;;;;;25.80;8.07;;;;;;;-147.16;67.57;77679.72;5055105;23;20709;-63
2023/03/28 04:33:09;;;;;;;26.20;8.27;;;;;;;-147.16;67.68;77671.63;5059586;23;20207;-65
2023/03/28 04:35:36;;;;;;;21.60;7.90;;;;;;;-147.16;67.43;77665.56;5045791;23;20216;-63
2023/03/28 04:38:03;;;;;;;26.07;8.50;;;;;;;-147.16;67.42;77663.53;5063303;23;20208;-65
2023/03/28 04:40:30;;;;;;;20.93;8.73;;;;;;;-147.16;66.43;77655.44;5069012;23;20251;-64
2023/03/28 04:42:56;;;;;;;30.03;8.93;;;;;;;-147.16;66.11;77647.34;5096144;23;23532;-66
2023/03/28 04:45:25;;;;;;;28.47;9.53;;;;;;;-147.16;65.91;77653.41;5075506;23;20632;-63
2023/03/28 04:47:52;;;;;;;28.03;10.77;;;;;;;-147.16;65.93;77647.34;5084298;23;20205;-62
2023/03/28 04:50:20;;;;;;;25.77;10.50;;;;;;;-147.16;65.87;77653.41;5083695;23;22171;-63
2023/03/28 04:52:46;;;;;;;26.90;10.67;;;;;;;-147.16;65.77;77639.22;5052567;23;20876;-64
2023/03/28 04:55:14;;;;;;;29.73;10.00;;;;;;;-147.16;65.66;77623.03;5095084;23;20305;-64
2023/03/28 04:57:41;;;;;;;27.97;10.47;;;;;;;-147.16;64.96;77598.72;5047132;23;20959;-64
2023/03/28 05:00:09;;;;;;;31.60;10.63;;;;;;;-147.16;64.60;77602.78;5068896;23;20330;-64
2023/03/28 05:02:36;;;;;;;27.27;9.90;;;;;;;-147.16;63.58;77584.56;5099686;23;20204;-64
2023/03/28 05:05:03;;;;;;;37.77;10.00;;;;;;;-147.16;63.53;77572.41;5055479;23;20287;-66
2023/03/28 05:07:30;;;;;;;23.23;9.13;;;;;;;-147.16;63.07;77554.19;5073190;23;20210;-65
2023/03/28 05:09:57;;;;;;;20.00;8.27;;;;;;;-147.16;62.35;77558.22;5080822;23;20505;-62
2023/03/28 05:12:23;;;;;;;22.73;7.47;;;;;;;-147.16;62.42;77546.09;5074961;23;20449;-64
2023/03/28 05:14:50;;;;;;;30.30;8.00;;;;;;;-147.16;61.78;77537.97;5046041;23;25102;-65
2023/03/28 05:17:17;;;;;;;21.83;7.13;;;;;;;-147.16;61.45;77511.66;5082598;23;20275;-64
2023/03/28 05:19:43;;;;;;;26.17;7.20;;;;;;;-147.16;60.82;77505.59;5063677;23;20209;-65
2023/03/28 05:22:10;;;;;;;22.13;7.43;;;;;;;-147.16;60.69;77495.47;5052226;23;20205;-65
2023/03/28 05:24:37;;;;;;;23.87;7.13;;;;;;;-147.16;60.38;77491.41;5085407;23;21157;-65
2023/03/28 05:27:03;;;;;;;23.47;8.07;;;;;;;-147.16;60.38;77485.34;5065994;23;20266;-65
2023/03/28 05:29:30;;;;;;;22.83;8.53;;;;;;;-147.16;61.71;77511.66;5084838;23;20205;-65
2023/03/28 05:31:56;;;;;;;24.97;8.30;;;;;;;-147.16;61.99;77501.53;5057736;23;21964;-65
2023/03/28 05:34:23;;;;;;;23.83;8.73;;;;;;;-147.16;62.44;77485.34;5034350;23;20200;-65
2023/03/28 05:36:49;;;;;;;20.07;8.80;;;;;;;-147.16;63.62;77501.53;5042874;23;20215;-64
2023/03/28 05:39:16;;;;;;;27.63;9.00;;;;;;;-147.16;63.82;77517.72;5070292;23;20211;-67
2023/03/28 05:41:42;;;;;;;30.00;9.53;;;;;;;-147.16;64.77;77531.91;5063656;23;20215;-63
2023/03/28 05:44:09;;;;;;;28.27;10.03;;;;;;;-147.16;64.92;77499.50;5059065;23;20230;-66
2023/03/28 05:46:36;;;;;;;27.07;9.60;;;;;;;-147.16;64.75;77505.59;5048680;23;20278;-67
2023/03/28 05:49:03;;;;;;;31.83;10.37;;;;;;;-147.16;65.29;77513.69;5075044;23;22112;-64
2023/03/28 05:51:30;;;;;;;28.83;9.83;;;;;;;-147.16;66.28;77546.09;5027556;23;21383;-65
2023/03/28 05:53:56;;;;;;;26.60;9.40;;;;;;;-147.16;67.29;77576.47;5055414;23;21782;-63
2023/03/28 05:56:23;;;;;;;25.30;10.43;;;;;;;-147.16;67.90;77578.47;5072428;23;21005;-67
2023/03/28 05:58:49;;;;;;;31.87;10.10;;;;;;;-147.16;68.38;77586.59;5053749;23;20260;-64
2023/03/28 06:01:22;;;;;;;29.43;10.90;;;;;;;-147.16;69.34;77572.41;5068508;23;20879;-66
2023/03/28 06:03:49;;;;;;;26.10;10.33;;;;;;;-147.16;70.00;77592.66;5056476;23;20212;-64
2023/03/28 06:06:16;;;;;;;26.53;11.03;;;;;;;-147.16;70.81;77586.59;5031247;23;20211;-64
2023/03/28 06:08:43;;;;;;;27.97;10.90;;;;;;;-147.16;71.57;77586.59;5025118;23;21635;-64
2023/03/28 06:11:10;;;;;;;27.60;10.87;;;;;;;-147.16;72.54;77592.66;5051405;23;20272;-61
2023/03/28 06:13:37;;;;;;;28.37;11.27;;;;;;;-147.16;73.07;77590.63;5076300;23;20204;-63
2023/03/28 06:16:04;;;;;;;28.77;12.00;;;;;;;-147.16;73.88;77582.53;5059774;23;23252;-62
2023/03/28 06:18:30;;;;;;;27.87;11.17;;;;;;;-147.16;74.26;77558.22;5041173;23;20303;-64
2023/03/28 06:20:57;;;;;;;32.53;12.63;;;;;;;-147.16;74.74;77570.38;5067115;23;20207;-64
2023/03/28 06:23:24;;;;;;;31.93;13.33;;;;;;;-147.16;75.32;77584.56;5045795;23;21266;-61
2023/03/28 06:25:51;;;;;;;42.20;15.07;;;;;;;-147.16;76.65;77592.66;5039024;23;20223;-64
2023/03/28 06:28:18;;;;;;;33.27;13.87;;;;;;;-147.16;76.72;77582.53;5063495;23;21602;-63
2023/03/28 06:30:48;;;;;;;36.37;13.77;;;;;;;-147.16;76.92;77576.47;5044760;23;21138;-63
2023/03/28 06:33:15;;;;;;;38.30;15.00;;;;;;;-147.16;77.38;77574.44;5010134;23;20205;-66
2023/03/28 06:35:42;;;;;;;37.97;14.90;;;;;;;-147.16;77.75;77574.44;5037920;23;20313;-63
2023/03/28 06:38:08;;;;;;;37.33;16.17;;;;;;;-147.16;77.95;77556.22;5067932;23;20274;-66
2023/03/28 06:40:35;;;;;;;45.10;17.27;;;;;;;-147.16;77.51;77537.97;5052428;23;20210;-64
2023/03/28 06:43:01;;;;;;;35.83;15.67;;;;;;;-147.16;77.55;77558.22;5083212;23;22175;-62
2023/03/28 06:45:29;;;;;;;34.80;14.97;;;;;;;-147.16;78.08;77552.16;5091471;23;20207;-66
2023/03/28 06:47:56;;;;;;;40.13;14.30;;;;;;;-147.16;78.26;77572.41;5056497;23;20239;-64
2023/03/28 06:50:22;;;;;;;41.53;16.57;;;;;;;-147.16;78.67;77566.34;5061696;23;20946;-64
2023/03/28 06:52:49;;;;;;;44.57;16.43;;;;;;;-147.16;79.12;77564.31;5057499;23;20262;-59
2023/03/28 06:55:16;;;;;;;36.77;15.77;;;;;;;-147.16;79.35;77554.19;5061021;23;22266;-63
2023/03/28 06:57:42;;;;;;;41.23;15.23;;;;;;;-147.16;79.23;77546.09;5059490;23;25264;-67
2023/03/28 07:00:10;;;;;;;36.33;16.30;;;;;;;-147.16;79.43;77550.13;5105460;23;20481;-63
2023/03/28 07:02:37;;;;;;;42.77;16.67;;;;;;;-147.16;79.44;77544.06;5058897;23;21496;-64
2023/03/28 07:05:04;;;;;;;38.43;16.63;;;;;;;-147.16;80.10;77542.03;5060441;23;21714;-62
2023/03/28 07:07:30;;;;;;;32.93;15.63;;;;;;;-147.16;79.88;77546.09;5031681;23;21801;-65
2023/03/28 07:09:57;;;;;;;38.77;16.87;;;;;;;-147.16;79.85;77544.06;5061578;23;20222;-61
2023/03/28 07:12:25;;;;;;;39.97;17.70;;;;;;;-147.16;79.78;77533.94;5062205;23;20204;-62
2023/03/28 07:14:51;;;;;;;40.07;16.87;;;;;;;-147.16;80.04;77499.50;5029401;23;20284;-65
2023/03/28 07:17:18;;;;;;;37.80;16.43;;;;;;;-147.16;79.45;77497.47;5058019;23;21280;-63
2023/03/28 07:19:47;;;;;;;33.07;15.07;;;;;;;-147.16;78.26;77483.31;5031461;23;20283;-64
2023/03/28 07:22:14;;;;;;;41.47;17.20;;;;;;;-147.16;77.63;77469.13;5045356;23;20209;-63
2023/03/28 07:24:40;;;;;;;34.03;15.43;;;;;;;-147.16;77.63;77477.25;5056914;23;20254;-65
2023/03/28 07:27:08;;;;;;;37.13;15.73;;;;;;;-147.16;77.25;77461.03;5059304;23;20370;-65
2023/03/28 07:29:41;;;;;;;32.30;14.13;;;;;;;-147.16;77.38;77477.25;5042777;23;20629;-64
2023/03/28 07:32:08;;;;;;;33.97;14.73;;;;;;;-147.16;77.23;77475.22;5050437;23;20216;-65
2023/03/28 07:34:35;;;;;;;34.87;14.90;;;;;;;-147.16;76.90;77438.75;5045663;23;21194;-64
2023/03/28 07:37:01;;;;;;;30.47;13.10;;;;;;;-147.16;76.10;77434.72;5059360;23;21550;-63
2023/03/28 07:39:31;;;;;;;29.73;14.00;;;;;;;-147.16;75.19;77444.84;5087590;23;20206;-65
2023/03/28 07:41:57;;;;;;;30.47;12.20;;;;;;;-147.16;75.17;77428.63;5080954;23;20514;-62
2023/03/28 07:44:24;;;;;;;30.30;13.23;;;;;;;-147.16;75.17;77432.69;5072046;23;20215;-67
2023/03/28 07:46:51;;;;;;;25.63;12.77;;;;;;;-147.16;74.87;77398.25;5072527;23;25790;-66
2023/03/28 07:49:19;;;;;;;26.50;12.63;;;;;;;-147.16;73.95;77373.97;5075870;23;22790;-66
2023/03/28 07:51:46;;;;;;;30.57;11.93;;;;;;;-147.16;73.30;77353.72;5073266;23;21372;-65
2023/03/28 07:54:16;;;;;;;24.20;10.97;;;;;;;-147.16;72.68;77317.28;5047873;23;22293;-64
2023/03/28 07:56:47;;;;;;;20.47;9.27;;;;;;;-147.16;70.39;77295.00;5051109;23;21715;-68
2023/03/28 07:59:14;;;;;;;24.63;10.53;;;;;;;-147.16;69.67;77303.09;5059319;23;20214;-65
2023/03/28 08:01:42;;;;;;;18.63;9.40;;;;;;;-147.16;69.22;77292.97;5072707;23;20264;-65
2023/03/28 08:04:10;;;;;;;22.50;9.37;;;;;;;-147.16;69.60;77284.88;5094692;23;20201;-66
2023/03/28 08:06:37;;;;;;;17.27;8.57;;;;;;;-147.16;68.19;77234.25;5038811;23;20336;-64
2023/03/28 08:09:09;;;;;;;18.93;8.00;;;;;;;-147.16;66.74;77207.94;5055243;23;20204;-65
2023/03/28 08:11:37;;;;;;;13.87;6.67;;;;;;;-147.16;64.33;77181.59;5091719;23;22849;-69
2023/03/28 08:14:05;;;;;;;15.87;6.53;;;;;;;-147.16;63.54;77169.47;5056478;23;21131;-64
2023/03/28 08:16:32;;;;;;;15.90;6.10;;;;;;;-147.16;62.47;77171.47;5080894;23;20315;-63
2023/03/28 08:18:59;;;;;;;16.40;6.17;;;;;;;-147.16;62.80;77167.44;5078523;23;20208;-62
2023/03/28 08:21:37;;;;;;;16.17;5.90;;;;;;;-147.16;63.21;77207.94;5084429;23;20412;-63
2023/03/28 08:24:06;;;;;;;11.47;5.70;;;;;;;-147.16;61.76;77173.50;5074950;23;20209;-65
2023/03/28 08:26:33;;;;;;;8.00;4.67;;;;;;;-147.16;59.18;77056.06;5080464;23;21132;-65
2023/03/28 08:29:00;;;;;;;7.93;4.70;;;;;;;-147.16;57.47;77086.44;5068348;23;25688;-66
2023/03/28 08:31:27;;;;;;;10.47;5.27;;;;;;;-147.16;57.08;77084.41;5071865;23;20306;-64
2023/03/28 08:33:55;;;;;;;8.70;4.13;;;;;;;-147.16;56.59;77112.78;5033802;23;20212;-68
2023/03/28 08:36:24;;;;;;;10.73;4.80;;;;;;;-147.16;58.23;77120.88;5058514;23;20200;-63
2023/03/28 08:38:53;;;;;;;8.37;3.80;;;;;;;-147.16;57.12;77092.53;5066782;23;20208;-64
2023/03/28 08:41:45;;;;;;;11.67;3.40;;;;;;;-147.16;55.12;77003.44;5087579;23;20250;-66
2023/03/28 08:44:15;;;;;;;6.97;3.43;;;;;;;-147.16;53.12;76932.56;5086805;23;20295;-65
2023/03/28 08:46:44;;;;;;;7.27;3.10;;;;;;;-147.16;52.46;76967.00;5074048;23;20254;-68
2023/03/28 08:49:14;;;;;;;8.50;3.53;;;;;;;-147.16;52.88;77035.81;5057712;23;20207;-68
2023/03/28 08:51:43;;;;;;;8.97;4.20;;;;;;;-147.16;53.12;77054.06;5044921;23;20204;-64
2023/03/28 08:54:27;;;;;;;8.23;3.47;;;;;;;-147.16;53.57;77064.19;5129235;23;20208;-63
2023/03/28 08:56:56;;;;;;;7.47;3.30;;;;;;;-147.16;54.13;77072.28;5174321;23;20577;-66
2023/03/28 08:59:32;;;;;;;6.90;3.30;;;;;;;-147.16;53.88;77076.31;5399633;23;20213;-65
2023/03/28 09:02:00;;;;;;;10.00;3.77;;;;;;;-147.16;55.38;77133.00;5419035;23;20291;-66
2023/03/28 09:04:35;;;;;;;6.77;3.23;;;;;;;-147.16;56.34;77185.66;5340966;23;20209;-63
2023/03/28 09:07:36;;;;;;;12.47;5.00;;;;;;;-147.16;56.64;77179.59;5309336;23;20241;-63
2023/03/28 09:10:23;;;;;;;10.07;5.07;;;;;;;-147.16;57.77;77220.06;5423607;23;20202;-69
2023/03/28 09:13:29;;;;;;;12.93;5.60;;;;;;;-147.16;76.83;77380.03;5815589;23;20319;-73
2023/03/28 09:16:09;;;;;;;12.13;6.90;;;;;;;-147.16;78.26;77463.06;5618932;23;20622;-71
2023/03/28 09:18:42;;;;;;;14.50;7.87;;;;;;;-147.16;79.03;77493.44;5585844;23;20659;-67
2023/03/28 09:21:30;;;;;;;14.87;8.87;;;;;;;-147.16;79.72;77505.59;5500292;23;20217;-69
2023/03/28 09:24:14;;;;;;;17.10;9.40;;;;;;;-147.16;80.35;77533.94;5358755;23;21404;-67
2023/03/28 09:26:48;;;;;;;20.20;9.93;;;;;;;-147.16;80.96;77550.13;5515241;23;20204;-70
2023/03/28 09:29:18;;;;;;;18.43;9.83;;;;;;;-147.16;81.22;77529.88;5354869;23;20941;-67
2023/03/28 09:31:50;;;;;;;19.27;10.33;;;;;;;-147.16;80.45;77529.88;5243901;23;20205;-65
2023/03/28 09:34:21;;;;;;;19.00;10.60;;;;;;;-147.16;79.95;77505.59;5246156;23;20204;-68
2023/03/28 09:36:49;;;;;;;20.00;9.90;;;;;;;-147.16;78.69;77461.03;5034941;23;20217;-64
2023/03/28 09:39:35;;;;;;;18.23;10.23;;;;;;;-147.16;76.12;77471.16;5039489;23;20300;-67
2023/03/28 09:42:10;;;;;;;20.67;10.97;;;;;;;-147.16;74.36;77503.56;5048899;23;20211;-64
2023/03/28 09:44:42;;;;;;;16.77;9.57;;;;;;;-147.16;74.01;77517.72;5063479;23;21803;-64
2023/03/28 09:47:21;;;;;;;20.50;10.17;;;;;;;-147.16;74.42;77505.59;5058568;23;21693;-66
2023/03/28 09:49:48;;;;;;;19.07;9.90;;;;;;;-147.16;73.39;77483.31;5092908;23;21785;-66
2023/03/28 09:52:25;;;;;;;23.90;10.37;;;;;;;-147.16;72.29;77473.19;5098054;23;20280;-65
2023/03/28 09:54:51;;;;;;;21.77;10.60;;;;;;;-147.16;72.17;77471.16;5127869;23;20626;-68
2023/03/28 09:57:18;;;;;;;19.60;10.73;;;;;;;-147.16;71.54;77485.34;5114577;23;20230;-63
2023/03/28 09:59:45;;;;;;;19.67;9.60;;;;;;;-147.16;72.88;77493.44;5116140;23;21121;-64
2023/03/28 10:02:28;;;;;;;19.60;10.20;;;;;;;-147.16;72.72;77469.13;5210230;23;20200;-69
2023/03/28 10:04:54;;;;;;;22.47;9.53;;;;;;;-147.16;70.88;77432.69;5100244;23;21712;-66
2023/03/28 10:07:31;;;;;;;22.00;10.33;;;;;;;-147.16;69.16;77420.53;5177058;23;20278;-67
2023/03/28 10:10:08;;;;;;;18.37;10.17;;;;;;;-147.16;68.74;77404.34;5120917;23;21255;-72
2023/03/28 10:12:36;;;;;;;14.20;7.80;;;;;;;-147.16;66.61;77410.41;5075891;23;20927;-69
2023/03/28 10:15:06;;;;;;;12.73;6.80;;;;;;;-147.16;65.34;77444.84;5068990;23;20263;-69
2023/03/28 10:17:36;;;;;;;14.00;6.53;;;;;;;-147.16;63.87;77471.16;5072984;23;20204;-73
2023/03/28 10:20:20;;;;;;;10.40;5.50;;;;;;;-147.16;63.41;77473.19;5040090;23;20312;-67
2023/03/28 10:22:50;;;;;;;11.93;4.80;;;;;;;-147.16;61.49;77489.38;5064699;23;20685;-66
2023/03/28 10:25:20;;;;;;;9.63;4.80;;;;;;;-147.16;62.52;77515.72;5075049;23;20226;-66
2023/03/28 10:27:47;;;;;;;9.07;3.80;;;;;;;-147.16;60.62;77521.78;5036839;23;20202;-66
2023/03/28 10:30:21;;;;;;;9.10;3.57;;;;;;;-147.16;58.89;77515.72;5038239;23;20451;-70
2023/03/28 10:33:08;;;;;;;6.40;3.40;;;;;;;-147.16;58.59;77533.94;5059285;23;21515;-66
2023/03/28 10:35:40;;;;;;;6.87;2.73;;;;;;;-147.16;58.07;77550.13;5084604;23;20205;-71
2023/03/28 10:38:14;;;;;;;6.30;2.73;;;;;;;-147.16;58.48;77574.44;5037003;23;20308;-70
2023/03/28 10:40:41;;;;;;;9.93;2.67;;;;;;;-147.16;58.66;77550.13;5039176;23;20396;-65
2023/03/28 10:43:12;;;;;;;6.43;3.30;;;;;;;-147.16;57.85;77556.22;5080482;23;21538;-65
2023/03/28 10:45:41;;;;;;;6.30;2.70;;;;;;;-147.16;58.59;77546.09;5031039;23;20208;-65
2023/03/28 10:48:16;;;;;;;4.93;2.90;;;;;;;-147.16;58.11;77546.09;5035791;23;22846;-66
2023/03/28 10:50:47;;;;;;;5.97;3.10;;;;;;;-147.16;57.81;77531.91;5030649;23;20727;-65
2023/03/28 10:53:26;;;;;;;9.70;3.17;;;;;;;-147.16;56.71;77542.03;5063779;23;22220;-66
2023/03/28 10:56:05;;;;;;;6.37;2.77;;;;;;;-147.16;57.33;77533.94;5050658;23;20227;-64
2023/03/28 10:58:35;;;;;;;8.27;3.27;;;;;;;-147.16;55.03;77531.91;5044710;23;20379;-66
2023/03/28 11:01:19;;;;;;;6.47;2.80;;;;;;;-147.16;55.48;77546.09;5052260;23;21257;-66
2023/03/28 11:04:11;;;;;;;5.20;2.37;;;;;;;-147.16;54.29;77531.91;5030710;23;20794;-67
2023/03/28 11:06:53;;;;;;;6.97;2.80;;;;;;;-147.16;54.24;77519.75;5012481;23;21254;-68
2023/03/28 11:09:30;;;;;;;6.43;2.63;;;;;;;-147.16;53.54;77513.69;5053731;23;20219;-65
2023/03/28 11:12:17;;;;;;;5.53;2.37;;;;;;;-147.16;52.93;77517.72;5065909;23;20307;-67
2023/03/28 11:15:19;;;;;;;3.53;1.93;;;;;;;-147.16;52.80;77519.75;5082710;23;20212;-65
2023/03/28 11:17:55;;;;;;;4.80;2.03;;;;;;;-147.16;52.70;77546.09;5084005;23;20297;-66
2023/03/28 11:21:13;;;;;;;4.43;2.07;;;;;;;-147.16;51.28;77568.34;5071612;23;21708;-65
2023/03/28 11:23:52;;;;;;;4.20;1.63;;;;;;;-147.16;50.25;77588.59;5041555;23;20644;-65
2023/03/28 11:26:19;;;;;;;4.43;1.70;;;;;;;-147.16;49.83;77623.03;5057735;23;20311;-65